Saint-Athanase, Canada
Current Conditions -  °F | °C
As of 7:53 AM on Saturday 25 Oct 2014 (Local Time) from KFVE Reporting Station
Overcast Overcast  
Wind Chill: 39°   Ceiling: 6000
Heat Index: 39°   Visibility: 10mi
Dew Point: 32°   Wind: 0mph
Humidity: 76%   Direction: NA
Pressure: 29.63"   Gusts: NA
Location:  47.43°N, 69.42°W
Report Text: KFVE 251153Z AUTO 00000KT 10SM FEW048 OVC060 04/00 A2963 RMK AO2 SLP039 70039 T00390000 10039 20028 53003
Loading
Personal Weather Stations






























Interactive Weather Map
Tropical Storm Tracking
New forecast layout! Learn more

10-Day Weather Forecast

Advertisements
Track Severe Weather on mobile